createdAt,value
2018-01-04T00:01:05.443Z,983.9
2018-01-04T00:02:15.158Z,983.96
2018-01-04T00:03:24.869Z,983.8
2018-01-04T00:04:34.613Z,983.93
2018-01-04T00:05:44.581Z,983.89
2018-01-04T00:06:54.540Z,984
2018-01-04T00:08:04.282Z,983.95
2018-01-04T00:09:14.260Z,983.95
2018-01-04T00:10:24.240Z,984.08
2018-01-04T00:12:06.038Z,983.89
2018-01-04T00:13:16.014Z,984.19
2018-01-04T00:14:57.571Z,984.01
2018-01-04T00:16:07.607Z,983.94
2018-01-04T00:17:17.580Z,984.18
2018-01-04T00:18:27.561Z,984.14
2018-01-04T00:19:37.540Z,983.86
2018-01-04T00:20:47.517Z,984.12
2018-01-04T00:21:57.520Z,984.06
2018-01-04T00:23:07.497Z,984.11
2018-01-04T00:24:17.205Z,984.14
2018-01-04T00:25:27.168Z,984.14
2018-01-04T00:26:36.895Z,984.07
2018-01-04T00:28:18.728Z,984.09
2018-01-04T00:30:10.800Z,984.15
2018-01-04T00:31:20.785Z,984.17
2018-01-04T00:32:30.829Z,984.32
2018-01-04T00:33:40.808Z,984.32
2018-01-04T00:34:50.784Z,984.17
2018-01-04T00:36:00.817Z,984.19
2018-01-04T00:37:10.767Z,984.2
2018-01-04T00:39:02.308Z,984.25
2018-01-04T00:40:12.066Z,984.31
2018-01-04T00:43:09.914Z,984.23
2018-01-04T00:45:23.547Z,984.4
2018-01-04T00:47:05.338Z,984.34
2018-01-04T00:48:46.865Z,984.51
2018-01-04T00:50:06.838Z,984.41
2018-01-04T00:51:16.832Z,984.34
2018-01-04T00:52:26.786Z,984.57
2018-01-04T00:53:36.742Z,984.54
2018-01-04T00:54:46.702Z,984.61
2018-01-04T00:55:56.676Z,984.55
2018-01-04T00:57:06.636Z,984.66
2018-01-04T00:58:16.610Z,984.63
2018-01-04T00:59:26.324Z,984.6
2018-01-04T01:00:36.077Z,984.7
2018-01-04T01:01:45.790Z,984.55
2018-01-04T01:02:55.241Z,984.57
2018-01-04T01:04:04.968Z,984.64
2018-01-04T01:05:14.943Z,984.64
2018-01-04T01:06:24.654Z,984.75
2018-01-04T01:07:34.638Z,984.67
2018-01-04T01:08:44.600Z,984.76
2018-01-04T01:09:54.561Z,984.78
2018-01-04T01:11:04.534Z,984.6
2018-01-04T01:12:14.518Z,984.75
2018-01-04T01:13:23.973Z,984.84
2018-01-04T01:14:33.683Z,984.98
2018-01-04T01:15:43.409Z,985.1
2018-01-04T01:16:53.381Z,984.93
2018-01-04T01:18:03.353Z,985.19
2018-01-04T01:19:13.396Z,985.06
2018-01-04T01:20:23.388Z,985.06
2018-01-04T01:21:32.843Z,984.94
2018-01-04T01:22:42.565Z,984.88
2018-01-04T01:23:52.018Z,984.97
2018-01-04T01:25:01.985Z,984.83
2018-01-04T01:26:11.967Z,984.98
2018-01-04T01:27:21.939Z,984.94
2018-01-04T01:28:31.958Z,984.96
2018-01-04T01:29:41.924Z,984.8
2018-01-04T01:30:51.934Z,984.85
2018-01-04T01:32:01.637Z,984.86
2018-01-04T01:33:11.664Z,984.79
2018-01-04T01:34:21.633Z,984.94
2018-01-04T01:35:31.339Z,984.79
2018-01-04T01:36:40.793Z,984.78
2018-01-04T01:37:50.268Z,984.99
2018-01-04T01:39:00.235Z,984.82
2018-01-04T01:40:10.192Z,984.88
2018-01-04T01:41:20.160Z,985.1
2018-01-04T01:42:30.126Z,984.74
2018-01-04T01:43:40.019Z,984.9
2018-01-04T01:44:50.430Z,984.9
2018-01-04T01:46:32.235Z,984.91
2018-01-04T01:47:42.255Z,984.87
2018-01-04T01:49:04.721Z,984.81
2018-01-04T01:50:14.441Z,985.17
2018-01-04T01:51:26.923Z,985.06
2018-01-04T01:53:08.707Z,984.94
2018-01-04T01:54:18.415Z,984.94
2018-01-04T01:55:27.961Z,984.95
2018-01-04T01:56:37.663Z,984.79
2018-01-04T01:57:47.377Z,984.98
2018-01-04T01:58:57.217Z,984.98
2018-01-04T02:00:07.001Z,984.97
2018-01-04T02:01:16.962Z,985.11
2018-01-04T02:02:26.962Z,985.1
2018-01-04T02:04:08.501Z,985.17
2018-01-04T02:05:18.473Z,985.12
2018-01-04T02:07:00.267Z,985.06
2018-01-04T02:08:10.227Z,985.12
2018-01-04T02:09:20.187Z,985.16
2018-01-04T02:10:30.189Z,985.13
2018-01-04T02:11:39.889Z,985
2018-01-04T02:12:49.868Z,985.14
2018-01-04T02:13:59.575Z,985.16
2018-01-04T02:15:09.542Z,985.22
2018-01-04T02:16:19.499Z,985.28
2018-01-04T02:17:29.207Z,985.21
2018-01-04T02:18:38.930Z,985.2
2018-01-04T02:19:48.903Z,985.11
2018-01-04T02:20:58.879Z,985.14
2018-01-04T02:22:08.324Z,985.17
2018-01-04T02:23:18.023Z,985.4
2018-01-04T02:24:27.728Z,985.11
2018-01-04T02:25:37.690Z,985.35
2018-01-04T02:26:47.673Z,985.41
2018-01-04T02:27:57.634Z,985.32
2018-01-04T02:29:07.605Z,985.49
2018-01-04T02:30:17.579Z,985.32
2018-01-04T02:31:27.286Z,985.29
2018-01-04T02:32:36.998Z,985.25
2018-01-04T02:33:46.752Z,985.49
2018-01-04T02:34:56.452Z,985.54
2018-01-04T02:36:05.917Z,985.8
2018-01-04T02:37:15.619Z,985.48
2018-01-04T02:38:25.808Z,985.61
2018-01-04T02:39:36.166Z,985.39
2018-01-04T02:40:45.865Z,985.48
2018-01-04T02:41:55.568Z,985.42
2018-01-04T02:43:05.540Z,985.56
2018-01-04T02:44:15.250Z,985.55
2018-01-04T02:45:25.214Z,985.62
2018-01-04T02:46:35.226Z,985.39
2018-01-04T02:47:44.936Z,985.45
2018-01-04T02:48:54.402Z,985.41
2018-01-04T02:50:04.172Z,985.93
2018-01-04T02:51:14.137Z,985.38
2018-01-04T02:52:23.847Z,985.49
2018-01-04T02:53:33.815Z,985.75
2018-01-04T02:54:43.792Z,985.48
2018-01-04T02:55:53.515Z,985.5
2018-01-04T02:57:02.979Z,985.2
2018-01-04T02:58:12.898Z,985.55
2018-01-04T02:59:22.893Z,985.85
2018-01-04T03:00:32.986Z,985.71
2018-01-04T03:02:46.372Z,985.99
2018-01-04T03:04:28.274Z,985.64
2018-01-04T03:05:38.027Z,985.97
2018-01-04T03:06:48.038Z,986.01
2018-01-04T03:07:57.761Z,985.74
2018-01-04T03:09:07.480Z,985.83
2018-01-04T03:11:58.972Z,985.88
2018-01-04T03:13:40.762Z,985.77
2018-01-04T03:14:50.734Z,985.82
2018-01-04T03:16:00.796Z,985.68
2018-01-04T03:17:10.766Z,985.96
2018-01-04T03:18:20.781Z,985.86
2018-01-04T03:19:30.759Z,985.92
2018-01-04T03:20:40.492Z,985.71
2018-01-04T03:21:50.212Z,986.05
2018-01-04T03:22:59.936Z,985.83
2018-01-04T03:24:09.895Z,985.86
2018-01-04T03:25:19.856Z,985.7
2018-01-04T03:26:29.053Z,985.94
2018-01-04T03:27:39.016Z,985.85
2018-01-04T03:28:48.716Z,985.84
2018-01-04T03:29:58.690Z,985.93
2018-01-04T03:31:08.410Z,986.06
2018-01-04T03:32:18.431Z,985.88
2018-01-04T03:33:28.414Z,985.8
2018-01-04T03:34:38.121Z,985.73
2018-01-04T03:35:48.076Z,986.43
2018-01-04T03:36:57.532Z,986.06
2018-01-04T03:38:07.491Z,985.94
2018-01-04T03:39:17.458Z,986.02
2018-01-04T03:40:26.894Z,985.98
2018-01-04T03:41:36.595Z,985.86
2018-01-04T03:42:46.035Z,985.98
2018-01-04T03:43:55.998Z,986.04
2018-01-04T03:45:05.700Z,985.98
2018-01-04T03:46:15.397Z,986.08
2018-01-04T03:47:25.334Z,985.9
2018-01-04T03:48:35.034Z,986.1
2018-01-04T03:49:44.986Z,986.15
2018-01-04T03:50:54.721Z,986.12
2018-01-04T03:52:04.434Z,986.33
2018-01-04T03:53:14.407Z,986.33
2018-01-04T03:54:24.104Z,986.36
2018-01-04T03:55:33.809Z,986.37
2018-01-04T03:56:43.522Z,986.18
2018-01-04T03:57:53.494Z,986.39
2018-01-04T03:59:03.456Z,986.55
2018-01-04T04:00:13.404Z,986.15
2018-01-04T04:01:23.374Z,986.33
2018-01-04T04:02:33.075Z,986.22
2018-01-04T04:03:43.050Z,986.88
2018-01-04T04:04:53.006Z,986.27
2018-01-04T04:06:02.964Z,986.49
2018-01-04T04:07:12.939Z,986.37
2018-01-04T04:08:22.391Z,986.36
2018-01-04T04:09:32.348Z,986.27
2018-01-04T04:10:42.050Z,986.36
2018-01-04T04:11:52.007Z,986.58
2018-01-04T04:13:01.730Z,986.42
2018-01-04T04:14:11.690Z,986.51
2018-01-04T04:15:21.138Z,986.49
2018-01-04T04:16:30.579Z,986.49
2018-01-04T04:17:40.300Z,986.51
2018-01-04T04:18:50.269Z,986.47
2018-01-04T04:19:59.995Z,986.69
2018-01-04T04:21:09.969Z,986.92
2018-01-04T04:22:19.935Z,986.57
2018-01-04T04:23:29.883Z,986.55
2018-01-04T04:24:39.829Z,986.67
2018-01-04T04:25:49.784Z,986.75
2018-01-04T04:26:59.736Z,986.65
2018-01-04T04:28:09.704Z,986.59
2018-01-04T04:29:19.411Z,986.9
2018-01-04T04:30:29.377Z,986.6
2018-01-04T04:31:39.086Z,986.74
2018-01-04T04:32:49.041Z,986.66
2018-01-04T04:33:58.754Z,986.67
2018-01-04T04:35:08.709Z,986.86
2018-01-04T04:36:18.686Z,986.74
2018-01-04T04:37:28.647Z,987.09
2018-01-04T04:38:38.624Z,986.78
2018-01-04T04:39:48.604Z,986.79
2018-01-04T04:40:58.630Z,986.78
2018-01-04T04:42:08.339Z,986.79
2018-01-04T04:43:18.310Z,986.74
2018-01-04T04:44:28.042Z,986.67
2018-01-04T04:45:37.758Z,986.93
2018-01-04T04:46:47.486Z,986.92
2018-01-04T04:47:57.451Z,986.77
2018-01-04T04:49:06.896Z,987.07
2018-01-04T04:50:16.342Z,986.95
2018-01-04T04:53:01.811Z,986.98
2018-01-04T04:54:11.796Z,987.21
2018-01-04T04:55:21.816Z,987.06
2018-01-04T04:56:31.531Z,987.08
2018-01-04T04:57:41.519Z,987.07
2018-01-04T05:00:33.302Z,987.19
2018-01-04T05:01:43.032Z,987.14
2018-01-04T05:03:24.837Z,987.07
2018-01-04T05:04:34.548Z,987.14
2018-01-04T05:05:44.582Z,987.17
2018-01-04T05:06:54.547Z,987.01
2018-01-04T05:08:04.529Z,987.26
2018-01-04T05:09:14.498Z,987.17
2018-01-04T05:10:24.206Z,987.29
2018-01-04T05:11:33.910Z,987.1
2018-01-04T05:12:43.860Z,987.25
2018-01-04T05:13:53.302Z,987.23
2018-01-04T05:15:03.012Z,987.3
2018-01-04T05:16:12.735Z,987.21
2018-01-04T05:17:22.709Z,987.87
2018-01-04T05:18:32.719Z,987.3
2018-01-04T05:19:42.699Z,987.28
2018-01-04T05:20:52.677Z,987.43
2018-01-04T05:22:02.397Z,987.02
2018-01-04T05:23:12.400Z,987.42
2018-01-04T05:24:22.127Z,987.34
2018-01-04T05:25:32.100Z,987.28
2018-01-04T05:26:41.818Z,987.31
2018-01-04T05:27:51.789Z,987.4
2018-01-04T05:29:01.779Z,987.34
2018-01-04T05:30:11.754Z,987.34
2018-01-04T05:31:21.507Z,987.42
2018-01-04T05:32:31.250Z,987.34
2018-01-04T05:33:40.957Z,987.59
2018-01-04T05:34:50.654Z,987.56
2018-01-04T05:36:00.356Z,987.54
2018-01-04T05:37:09.820Z,987.41
2018-01-04T05:38:19.779Z,987.49
2018-01-04T05:40:01.362Z,987.45
2018-01-04T05:41:11.072Z,987.43
2018-01-04T05:42:20.522Z,987.76
2018-01-04T05:43:30.229Z,987.52
2018-01-04T05:44:40.414Z,987.52
2018-01-04T05:45:50.669Z,987.58
2018-01-04T05:47:00.639Z,987.61
2018-01-04T05:48:10.343Z,987.66
2018-01-04T05:49:20.049Z,987.56
2018-01-04T05:50:30.018Z,987.57
2018-01-04T05:51:39.786Z,987.53
2018-01-04T05:52:49.740Z,987.57
2018-01-04T05:53:59.209Z,987.63
2018-01-04T05:55:08.934Z,987.69
2018-01-04T05:56:18.662Z,987.63
2018-01-04T05:57:28.640Z,987.56
2018-01-04T05:58:38.636Z,987.57
2018-01-04T05:59:48.345Z,987.59
2018-01-04T06:00:58.370Z,987.61
2018-01-04T06:02:07.830Z,987.5
2018-01-04T06:03:17.532Z,987.63
2018-01-04T06:04:27.503Z,987.63
2018-01-04T06:05:37.498Z,987.58
2018-01-04T06:06:47.472Z,987.69
2018-01-04T06:07:57.434Z,987.44
2018-01-04T06:09:07.390Z,987.53
2018-01-04T06:10:17.366Z,987.66
2018-01-04T06:11:27.356Z,987.63
2018-01-04T06:12:37.330Z,987.74
2018-01-04T06:13:47.297Z,987.66
2018-01-04T06:14:56.777Z,987.68
2018-01-04T06:16:06.762Z,987.6
2018-01-04T06:17:16.750Z,987.63
2018-01-04T06:18:26.457Z,987.71
2018-01-04T06:19:55.372Z,987.69
2018-01-04T06:22:09.013Z,987.63
2018-01-04T06:23:18.993Z,987.77
2018-01-04T06:24:28.705Z,988.1
2018-01-04T06:25:38.693Z,987.82
2018-01-04T06:26:48.684Z,987.71
2018-01-04T06:27:58.655Z,987.7
2018-01-04T06:29:08.635Z,987.76
2018-01-04T06:30:51.313Z,987.87
2018-01-04T06:32:33.168Z,987.75
2018-01-04T06:33:43.130Z,987.79
2018-01-04T06:34:53.094Z,987.77
2018-01-04T06:36:02.805Z,988.03
2018-01-04T06:37:12.808Z,987.75
2018-01-04T06:40:07.620Z,987.84
2018-01-04T06:41:49.173Z,987.88
2018-01-04T06:42:58.952Z,987.96
2018-01-04T06:44:08.673Z,987.92
2018-01-04T06:45:18.635Z,988.07
2018-01-04T06:47:00.453Z,987.86
2018-01-04T06:48:10.499Z,987.89
2018-01-04T06:49:20.201Z,987.92
2018-01-04T06:50:29.660Z,987.87
2018-01-04T06:51:39.375Z,987.94
2018-01-04T06:52:49.346Z,987.96
2018-01-04T06:53:59.315Z,988.12
2018-01-04T06:55:09.308Z,987.9
2018-01-04T06:56:19.042Z,988.02
2018-01-04T06:57:28.751Z,987.89
2018-01-04T06:58:38.462Z,988.03
2018-01-04T06:59:48.179Z,988.07
2018-01-04T07:00:58.158Z,988.06
2018-01-04T07:02:08.200Z,987.98
2018-01-04T07:03:18.184Z,988.08
2018-01-04T07:04:27.913Z,987.82
2018-01-04T07:05:37.897Z,987.97
2018-01-04T07:06:47.888Z,988.06
2018-01-04T07:07:57.602Z,988.19
2018-01-04T07:09:07.325Z,988.16
2018-01-04T07:10:17.309Z,988.17
2018-01-04T07:11:27.407Z,988.33
2018-01-04T07:12:37.428Z,988.32
2018-01-04T07:13:47.419Z,988.48
2018-01-04T07:14:57.440Z,988.35
2018-01-04T07:16:07.523Z,988.32
2018-01-04T07:17:17.095Z,988.32
2018-01-04T07:18:27.100Z,988.39
2018-01-04T07:19:37.218Z,988.39
2018-01-04T07:20:47.071Z,988.44
2018-01-04T07:21:56.683Z,988.53
2018-01-04T07:23:06.541Z,988.61
2018-01-04T07:24:16.617Z,988.46
2018-01-04T07:25:26.630Z,988.3
2018-01-04T07:26:36.682Z,988.45
2018-01-04T07:27:46.688Z,988.47
2018-01-04T07:28:56.440Z,988.41
2018-01-04T07:30:06.484Z,988.43
2018-01-04T07:31:16.354Z,988.37
2018-01-04T07:32:25.847Z,988.41
2018-01-04T07:33:35.870Z,988.49
2018-01-04T07:34:45.622Z,988.61
2018-01-04T07:35:56.343Z,988.62
2018-01-04T07:37:06.331Z,988.54
2018-01-04T07:38:16.334Z,988.67
2018-01-04T07:39:26.001Z,988.88
2018-01-04T07:40:39.846Z,988.57
2018-01-04T07:41:50.102Z,988.52
2018-01-04T07:43:00.099Z,988.56
2018-01-04T07:44:10.086Z,988.77
2018-01-04T07:45:20.074Z,988.71
2018-01-04T07:46:29.819Z,988.66
2018-01-04T07:47:39.812Z,988.75
2018-01-04T07:48:49.812Z,988.8
2018-01-04T07:49:59.849Z,988.71
2018-01-04T07:51:09.850Z,988.71
2018-01-04T07:52:19.584Z,988.69
2018-01-04T07:53:29.586Z,988.7
2018-01-04T07:54:39.350Z,988.68
2018-01-04T07:55:49.087Z,988.67
2018-01-04T07:56:59.081Z,988.7
2018-01-04T07:58:09.082Z,988.74
2018-01-04T07:59:19.091Z,988.7
2018-01-04T08:00:29.091Z,988.75
2018-01-04T08:01:38.827Z,988.81
2018-01-04T08:02:48.583Z,988.82
2018-01-04T08:03:58.342Z,988.85
2018-01-04T08:05:08.096Z,988.91
2018-01-04T08:06:18.111Z,988.71
2018-01-04T08:07:27.869Z,988.81
2018-01-04T08:08:37.925Z,988.89
2018-01-04T08:09:47.704Z,988.84
2018-01-04T08:10:57.705Z,988.93
2018-01-04T08:12:07.763Z,988.93
2018-01-04T08:13:17.766Z,988.95
2018-01-04T08:14:27.748Z,989
2018-01-04T08:15:37.742Z,988.93
2018-01-04T08:16:47.508Z,988.95
2018-01-04T08:17:57.539Z,988.91
2018-01-04T08:19:07.291Z,988.93
2018-01-04T08:20:17.270Z,988.92
2018-01-04T08:21:27.274Z,988.89
2018-01-04T08:22:37.036Z,988.98
2018-01-04T08:23:47.105Z,988.9
2018-01-04T08:24:57.141Z,989.05
2018-01-04T08:26:07.146Z,989.05
2018-01-04T08:27:16.902Z,988.93
2018-01-04T08:28:26.897Z,989.03
2018-01-04T08:29:36.365Z,988.97
2018-01-04T08:30:46.366Z,989.07
2018-01-04T08:31:56.082Z,988.98
2018-01-04T08:33:05.821Z,989.12
2018-01-04T08:34:15.641Z,988.91
2018-01-04T08:35:25.629Z,989.23
2018-01-04T08:36:35.692Z,989.2
2018-01-04T08:37:45.438Z,989.14
2018-01-04T08:38:55.139Z,989.17
2018-01-04T08:40:04.884Z,989.19
2018-01-04T08:41:14.877Z,989.18
2018-01-04T08:42:24.626Z,989.29
2018-01-04T08:43:34.616Z,989.15
2018-01-04T08:44:44.346Z,989.34
2018-01-04T08:45:54.302Z,989.13
2018-01-04T08:47:04.010Z,989.12
2018-01-04T08:48:13.728Z,989.34
2018-01-04T08:49:23.459Z,989.26
2018-01-04T08:50:33.453Z,989.22
2018-01-04T08:51:43.197Z,989.32
2018-01-04T08:52:53.189Z,989.29
2018-01-04T08:54:03.246Z,989.31
2018-01-04T08:55:13.259Z,989.24
2018-01-04T08:56:23.237Z,989.34
2018-01-04T08:57:33.234Z,989.32
2018-01-04T08:58:42.735Z,989.4
2018-01-04T08:59:52.457Z,989.39
2018-01-04T09:01:02.447Z,989.4
2018-01-04T09:02:12.159Z,989.51
2018-01-04T09:03:22.179Z,989.35
2018-01-04T09:04:32.160Z,989.45
2018-01-04T09:05:41.634Z,989.38
2018-01-04T09:06:51.378Z,989.4
2018-01-04T09:08:01.065Z,989.42
2018-01-04T09:09:11.040Z,989.4
2018-01-04T09:10:21.023Z,989.39
2018-01-04T09:11:31.019Z,989.42
2018-01-04T09:12:40.742Z,989.34
2018-01-04T09:13:50.715Z,989.52
2018-01-04T09:15:00.719Z,989.46
2018-01-04T09:16:10.492Z,989.42
2018-01-04T09:17:20.466Z,989.59
2018-01-04T09:18:30.485Z,989.42
2018-01-04T09:19:40.284Z,989.48
2018-01-04T09:20:50.270Z,989.47
2018-01-04T09:22:00.254Z,989.44
2018-01-04T09:23:10.229Z,989.34
2018-01-04T09:24:19.688Z,989.57
2018-01-04T09:25:29.669Z,989.41
2018-01-04T09:26:38.633Z,989.42
2018-01-04T09:27:47.827Z,989.55
2018-01-04T09:28:57.607Z,989.39
2018-01-04T09:30:07.346Z,989.42
2018-01-04T09:31:17.359Z,989.44
2018-01-04T09:32:27.199Z,989.56
2018-01-04T09:33:37.170Z,989.42
2018-01-04T09:34:47.024Z,989.6
2018-01-04T09:35:56.947Z,989.54
2018-01-04T09:37:07.050Z,989.5
2018-01-04T09:38:17.076Z,989.57
2018-01-04T09:39:27.397Z,989.59
2018-01-04T09:40:37.823Z,989.59
2018-01-04T09:41:47.713Z,989.53
2018-01-04T09:42:57.854Z,989.59
2018-01-04T09:44:07.642Z,989.63
2018-01-04T09:45:17.329Z,989.57
2018-01-04T09:46:26.910Z,989.6
2018-01-04T09:47:41.338Z,989.66
2018-01-04T09:48:52.869Z,989.81
2018-01-04T09:50:04.441Z,989.41
2018-01-04T09:51:16.033Z,989.6
2018-01-04T09:52:26.877Z,989.67
2018-01-04T09:53:37.764Z,989.57
2018-01-04T09:54:47.207Z,989.59
2018-01-04T09:55:57.181Z,989.6
2018-01-04T09:57:06.948Z,989.63
2018-01-04T09:58:16.907Z,989.62
2018-01-04T09:59:26.606Z,989.55
2018-01-04T10:00:36.561Z,989.55
2018-01-04T10:01:46.525Z,989.69
2018-01-04T10:02:57.136Z,989.55
2018-01-04T10:04:08.620Z,989.65
2018-01-04T10:07:13.645Z,989.75
2018-01-04T10:08:23.638Z,989.73
2018-01-04T10:09:33.410Z,989.61
2018-01-04T10:10:43.389Z,989.64
2018-01-04T10:11:53.361Z,989.72
2018-01-04T10:13:03.264Z,989.7
2018-01-04T10:14:12.716Z,989.66
2018-01-04T10:15:22.674Z,989.52
2018-01-04T10:16:32.374Z,989.74
2018-01-04T10:17:42.110Z,989.74
2018-01-04T10:18:52.096Z,989.67
2018-01-04T10:20:02.090Z,989.61
2018-01-04T10:21:12.088Z,989.71
2018-01-04T10:22:21.806Z,989.59
2018-01-04T10:23:31.541Z,989.48
2018-01-04T10:24:41.519Z,989.74
2018-01-04T10:25:51.484Z,989.63
2018-01-04T10:27:01.204Z,989.64
2018-01-04T10:28:10.918Z,989.64
2018-01-04T10:29:20.690Z,989.56
2018-01-04T10:30:30.666Z,989.66
2018-01-04T10:31:40.648Z,989.56
2018-01-04T10:32:50.106Z,989.78
2018-01-04T10:33:59.830Z,989.69
2018-01-04T10:35:09.830Z,989.78
2018-01-04T10:36:19.852Z,989.58
2018-01-04T10:37:29.590Z,989.67
2018-01-04T10:38:39.299Z,989.71
2018-01-04T10:39:49.296Z,989.63
2018-01-04T10:40:59.285Z,989.84
2018-01-04T10:42:08.988Z,989.63
2018-01-04T10:43:19.019Z,989.65
2018-01-04T10:44:28.735Z,989.74
2018-01-04T10:45:38.453Z,989.79
2018-01-04T10:46:48.426Z,989.65
2018-01-04T10:47:58.463Z,989.65
2018-01-04T10:49:08.441Z,989.66
2018-01-04T10:50:18.155Z,989.7
2018-01-04T10:51:27.879Z,989.71
2018-01-04T10:52:37.575Z,989.72
2018-01-04T10:53:47.570Z,989.92
2018-01-04T10:54:57.544Z,989.72
2018-01-04T10:56:07.512Z,989.63
2018-01-04T10:57:17.222Z,989.69
2018-01-04T10:58:26.948Z,989.75
2018-01-04T10:59:36.917Z,989.69
2018-01-04T11:00:46.910Z,989.7
2018-01-04T11:01:56.882Z,989.68
2018-01-04T11:03:06.859Z,989.65
2018-01-04T11:04:17.043Z,989.76
2018-01-04T11:05:26.819Z,989.68
2018-01-04T11:06:36.530Z,989.64
2018-01-04T11:07:46.236Z,989.63
2018-01-04T11:08:55.945Z,989.64
2018-01-04T11:10:05.649Z,989.62
2018-01-04T11:11:15.614Z,989.71
2018-01-04T11:12:25.563Z,989.6
2018-01-04T11:13:35.279Z,989.81
2018-01-04T11:14:45.230Z,989.61
2018-01-04T11:15:54.924Z,989.76
2018-01-04T11:17:04.644Z,989.63
2018-01-04T11:18:14.083Z,989.48
2018-01-04T11:19:24.045Z,989.61
2018-01-04T11:20:33.743Z,989.72
2018-01-04T11:21:43.688Z,989.73
2018-01-04T11:22:53.134Z,989.63
2018-01-04T11:24:02.830Z,989.64
2018-01-04T11:25:12.804Z,989.63
2018-01-04T11:26:22.761Z,989.61
2018-01-04T11:27:32.730Z,989.66
2018-01-04T11:28:42.695Z,989.57
2018-01-04T11:29:52.687Z,989.62
2018-01-04T11:31:02.379Z,989.58
2018-01-04T11:32:12.310Z,989.6
2018-01-04T11:33:22.302Z,989.58
2018-01-04T11:34:32.010Z,989.7
2018-01-04T11:35:41.461Z,989.58
2018-01-04T11:36:51.430Z,989.58
2018-01-04T11:38:01.388Z,989.64
2018-01-04T11:39:11.345Z,989.79
2018-01-04T11:40:21.334Z,989.7
2018-01-04T11:41:31.543Z,989.74
2018-01-04T11:42:41.227Z,989.84
2018-01-04T11:43:50.948Z,989.63
2018-01-04T11:45:01.390Z,989.9
2018-01-04T11:46:11.336Z,989.68
2018-01-04T11:47:21.324Z,989.82
2018-01-04T11:48:31.048Z,989.67
2018-01-04T11:49:40.493Z,989.86
2018-01-04T11:50:50.504Z,989.85
2018-01-04T11:51:59.951Z,989.76
2018-01-04T11:53:09.684Z,989.76
2018-01-04T11:54:19.469Z,989.69
2018-01-04T11:55:29.487Z,989.77
2018-01-04T11:56:39.322Z,989.8
2018-01-04T11:57:49.303Z,989.74
2018-01-04T11:58:59.307Z,989.7
2018-01-04T12:00:09.304Z,989.72
2018-01-04T12:01:18.810Z,989.62
2018-01-04T12:02:28.797Z,989.65
2018-01-04T12:03:38.545Z,989.62
2018-01-04T12:04:48.591Z,989.5
2018-01-04T12:05:59.078Z,989.49
2018-01-04T12:07:08.561Z,989.47
2018-01-04T12:08:18.573Z,989.59
2018-01-04T12:09:28.653Z,989.43
2018-01-04T12:10:38.689Z,989.57
2018-01-04T12:11:48.667Z,989.5
2018-01-04T12:12:58.677Z,989.66
2018-01-04T12:14:08.402Z,989.55
2018-01-04T12:15:17.847Z,989.61
2018-01-04T12:16:27.830Z,989.53
2018-01-04T12:17:37.818Z,989.44
2018-01-04T12:18:47.930Z,989.65
2018-01-04T12:19:57.655Z,989.57
2018-01-04T12:21:07.652Z,989.53
2018-01-04T12:22:17.668Z,989.52
2018-01-04T12:23:27.410Z,989.8
2018-01-04T12:24:37.123Z,989.57
2018-01-04T12:25:47.094Z,989.58
2018-01-04T12:26:56.553Z,989.51
2018-01-04T12:28:06.545Z,989.65
2018-01-04T12:29:16.538Z,989.5
2018-01-04T12:30:26.264Z,989.55
2018-01-04T12:31:36.070Z,989.52
2018-01-04T12:32:45.594Z,989.42
2018-01-04T12:33:55.583Z,989.51
2018-01-04T12:35:05.565Z,989.6
2018-01-04T12:36:15.549Z,989.84
2018-01-04T12:37:25.282Z,989.54
2018-01-04T12:38:35.258Z,989.58
2018-01-04T12:39:44.988Z,989.47
2018-01-04T12:40:54.706Z,989.6
2018-01-04T12:42:04.428Z,989.65
2018-01-04T12:43:14.146Z,989.45
2018-01-04T12:44:24.136Z,989.51
2018-01-04T12:45:34.104Z,989.41
2018-01-04T12:46:44.082Z,989.4
2018-01-04T12:47:54.066Z,989.53
2018-01-04T12:49:04.033Z,989.46
2018-01-04T12:50:14.007Z,989.48
2018-01-04T12:51:24.083Z,989.71
2018-01-04T12:52:34.085Z,989.39
2018-01-04T12:53:44.071Z,989.37
2018-01-04T12:54:54.036Z,989.57
2018-01-04T12:56:04.006Z,989.34
2018-01-04T12:57:13.764Z,989.36
2018-01-04T12:58:23.769Z,989.39
2018-01-04T12:59:33.740Z,989.45
2018-01-04T13:00:43.439Z,989.4
2018-01-04T13:01:53.150Z,989.39
2018-01-04T13:03:03.119Z,989.32
2018-01-04T13:04:12.827Z,989.27
2018-01-04T13:05:22.533Z,989.43
2018-01-04T13:06:32.520Z,989.42
2018-01-04T13:07:42.339Z,989.38
2018-01-04T13:08:52.040Z,989.35
2018-01-04T13:10:02.035Z,989.46
2018-01-04T13:11:11.999Z,989.49
2018-01-04T13:12:21.998Z,989.42
2018-01-04T13:13:31.723Z,989.47
2018-01-04T13:14:41.685Z,989.46
2018-01-04T13:15:51.655Z,989.68
2018-01-04T13:17:01.686Z,989.41
2018-01-04T13:18:11.668Z,989.38
2018-01-04T13:19:21.661Z,989.57
2018-01-04T13:20:31.369Z,989.36
2018-01-04T13:21:41.100Z,989.45
2018-01-04T13:22:51.076Z,989.54
2018-01-04T13:24:00.543Z,989.47
2018-01-04T13:25:10.533Z,989.42
2018-01-04T13:26:20.568Z,989.46
2018-01-04T13:27:30.585Z,989.43
2018-01-04T13:28:40.305Z,989.44
2018-01-04T13:29:50.283Z,989.46
2018-01-04T13:31:00.243Z,989.46
2018-01-04T13:32:10.228Z,989.49
2018-01-04T13:33:19.952Z,989.46
2018-01-04T13:34:30.000Z,989.49
2018-01-04T13:35:39.988Z,989.45
2018-01-04T13:36:50.048Z,989.51
2018-01-04T13:38:00.029Z,989.54
2018-01-04T13:39:10.018Z,989.55
2018-01-04T13:40:20.025Z,989.5
2018-01-04T13:41:29.992Z,989.56
2018-01-04T13:42:39.698Z,989.42
2018-01-04T13:43:49.657Z,989.38
2018-01-04T13:44:59.638Z,989.53
2018-01-04T13:46:09.608Z,989.46
2018-01-04T13:47:19.572Z,989.5
2018-01-04T13:48:29.527Z,989.49
2018-01-04T13:49:38.983Z,989.42
2018-01-04T13:50:48.952Z,989.43
2018-01-04T13:51:58.903Z,989.47
2018-01-04T13:53:08.866Z,989.52
2018-01-04T13:54:18.831Z,989.41
2018-01-04T13:55:28.797Z,989.47
2018-01-04T13:56:38.753Z,989.4
2018-01-04T13:57:48.706Z,989.38
2018-01-04T13:58:58.670Z,989.41
2018-01-04T14:00:08.924Z,989.58
2018-01-04T14:01:18.638Z,989.43
2018-01-04T14:02:28.616Z,989.45
2018-01-04T14:03:38.563Z,989.36
2018-01-04T14:04:48.537Z,989.38
2018-01-04T14:05:58.498Z,989.26
2018-01-04T14:07:08.190Z,989.31
2018-01-04T14:08:17.893Z,989.18
2018-01-04T14:09:27.850Z,989.34
2018-01-04T14:10:37.845Z,989.37
2018-01-04T14:11:47.806Z,989.33
2018-01-04T14:12:57.529Z,989.29
2018-01-04T14:14:07.499Z,989.33
2018-01-04T14:15:17.466Z,989.26
2018-01-04T14:16:27.432Z,989.35
2018-01-04T14:17:37.131Z,989.2
2018-01-04T14:18:47.099Z,989.37
2018-01-04T14:19:57.059Z,989.33
2018-01-04T14:21:07.023Z,989.34
2018-01-04T14:22:16.731Z,989.14
2018-01-04T14:23:26.422Z,989.22
2018-01-04T14:24:35.861Z,989.25
2018-01-04T14:25:45.833Z,989.29
2018-01-04T14:26:55.791Z,989.21
2018-01-04T14:28:05.485Z,989.28
2018-01-04T14:29:15.196Z,989.35
2018-01-04T14:30:25.163Z,989.32
2018-01-04T14:31:35.140Z,989.35
2018-01-04T14:32:45.134Z,989.3
2018-01-04T14:33:54.847Z,989.22
2018-01-04T14:35:04.566Z,989.23
2018-01-04T14:36:14.538Z,989.24
2018-01-04T14:37:23.988Z,989.24
2018-01-04T14:38:33.998Z,989.27
2018-01-04T14:39:43.701Z,989.29
2018-01-04T14:40:53.658Z,989.25
2018-01-04T14:42:03.613Z,989.26
2018-01-04T14:43:13.595Z,989.34
2018-01-04T14:44:23.557Z,989.1
2018-01-04T14:45:33.579Z,989.38
2018-01-04T14:46:43.026Z,989.3
2018-01-04T14:47:52.469Z,989.4
2018-01-04T14:49:02.424Z,989.3
2018-01-04T14:50:11.859Z,989.39
2018-01-04T14:51:21.576Z,989.42
2018-01-04T14:52:31.554Z,989.45
2018-01-04T14:53:41.515Z,989.4
2018-01-04T14:54:51.488Z,989.34
2018-01-04T14:56:01.443Z,989.35
2018-01-04T14:57:11.399Z,989.39
2018-01-04T14:58:21.358Z,989.4
2018-01-04T14:59:31.056Z,989.59
2018-01-04T15:00:41.042Z,989.46